sensor_id;sensor_type;location;lat;lon;timestamp;pressure;altitude;pressure_sealevel;temperature;humidity
21240;BME280;10778;48.962;9.018;2022-09-09T00:01:23;98715.94;;;12.69;100.00
21240;BME280;10778;48.962;9.018;2022-09-09T00:04:28;98728.97;;;12.70;100.00
21240;BME280;10778;48.962;9.018;2022-09-09T00:14:51;98710.16;;;12.73;100.00
21240;BME280;10778;48.962;9.018;2022-09-09T00:20:03;98718.91;;;12.82;100.00
21240;BME280;10778;48.962;9.018;2022-09-09T00:22:36;98714.16;;;12.86;100.00
21240;BME280;10778;48.962;9.018;2022-09-09T00:25:19;98708.06;;;12.85;100.00
21240;BME280;10778;48.962;9.018;2022-09-09T00:27:50;98703.13;;;12.90;100.00
21240;BME280;10778;48.962;9.018;2022-09-09T00:30:19;98708.72;;;12.87;100.00
21240;BME280;10778;48.962;9.018;2022-09-09T00:32:50;98704.72;;;12.83;100.00
21240;BME280;10778;48.962;9.018;2022-09-09T00:38:01;98707.03;;;12.78;100.00
21240;BME280;10778;48.962;9.018;2022-09-09T00:40:34;98703.94;;;12.83;100.00
21240;BME280;10778;48.962;9.018;2022-09-09T00:51:16;98717.31;;;12.89;100.00
21240;BME280;10778;48.962;9.018;2022-09-09T00:56:37;98717.81;;;12.93;100.00
21240;BME280;10778;48.962;9.018;2022-09-09T00:59:28;98713.81;;;12.89;100.00
21240;BME280;10778;48.962;9.018;2022-09-09T01:01:58;98716.31;;;12.99;100.00
21240;BME280;10778;48.962;9.018;2022-09-09T01:04:31;98722.44;;;12.99;100.00
21240;BME280;10778;48.962;9.018;2022-09-09T01:07:08;98710.03;;;13.00;100.00
21240;BME280;10778;48.962;9.018;2022-09-09T01:09:57;98714.03;;;13.04;100.00
21240;BME280;10778;48.962;9.018;2022-09-09T01:12:28;98709.41;;;13.06;100.00
21240;BME280;10778;48.962;9.018;2022-09-09T01:15:09;98705.59;;;13.08;100.00
21240;BME280;10778;48.962;9.018;2022-09-09T01:17:51;98706.28;;;13.11;100.00
21240;BME280;10778;48.962;9.018;2022-09-09T01:20:24;98701.81;;;13.03;100.00
21240;BME280;10778;48.962;9.018;2022-09-09T01:26:08;98715.97;;;12.93;100.00
21240;BME280;10778;48.962;9.018;2022-09-09T01:28:36;98716.97;;;13.01;100.00
21240;BME280;10778;48.962;9.018;2022-09-09T01:31:11;98724.41;;;13.05;100.00
21240;BME280;10778;48.962;9.018;2022-09-09T01:33:42;98718.66;;;13.10;100.00
21240;BME280;10778;48.962;9.018;2022-09-09T01:39:17;98729.69;;;13.05;100.00
21240;BME280;10778;48.962;9.018;2022-09-09T01:41:45;98734.78;;;12.99;100.00
21240;BME280;10778;48.962;9.018;2022-09-09T01:44:14;98738.75;;;12.94;100.00
21240;BME280;10778;48.962;9.018;2022-09-09T01:46:44;98735.13;;;12.95;100.00
21240;BME280;10778;48.962;9.018;2022-09-09T01:49:18;98726.56;;;13.02;100.00
21240;BME280;10778;48.962;9.018;2022-09-09T01:51:49;98719.50;;;13.11;100.00
21240;BME280;10778;48.962;9.018;2022-09-09T01:54:18;98726.41;;;13.12;100.00
21240;BME280;10778;48.962;9.018;2022-09-09T02:02:04;98738.28;;;13.07;100.00
21240;BME280;10778;48.962;9.018;2022-09-09T02:04:44;98727.72;;;13.07;100.00
21240;BME280;10778;48.962;9.018;2022-09-09T02:07:38;98732.34;;;13.05;100.00
21240;BME280;10778;48.962;9.018;2022-09-09T02:12:45;98709.22;;;13.07;100.00
21240;BME280;10778;48.962;9.018;2022-09-09T02:15:26;98707.41;;;13.16;100.00
21240;BME280;10778;48.962;9.018;2022-09-09T02:17:57;98722.25;;;13.01;100.00
21240;BME280;10778;48.962;9.018;2022-09-09T02:20:26;98729.34;;;13.08;100.00
21240;BME280;10778;48.962;9.018;2022-09-09T02:22:58;98731.03;;;13.09;100.00
21240;BME280;10778;48.962;9.018;2022-09-09T02:25:28;98735.00;;;13.14;100.00
21240;BME280;10778;48.962;9.018;2022-09-09T02:28:01;98727.06;;;13.05;100.00
21240;BME280;10778;48.962;9.018;2022-09-09T02:30:30;98727.53;;;13.01;100.00
21240;BME280;10778;48.962;9.018;2022-09-09T02:32:59;98713.19;;;13.03;100.00
21240;BME280;10778;48.962;9.018;2022-09-09T02:35:43;98712.53;;;13.01;100.00
21240;BME280;10778;48.962;9.018;2022-09-09T02:38:13;98709.06;;;13.01;100.00
21240;BME280;10778;48.962;9.018;2022-09-09T02:40:49;98713.66;;;12.99;100.00
21240;BME280;10778;48.962;9.018;2022-09-09T02:43:15;98699.50;;;13.08;100.00
21240;BME280;10778;48.962;9.018;2022-09-09T02:45:57;98693.53;;;12.98;100.00
21240;BME280;10778;48.962;9.018;2022-09-09T02:48:34;98699.34;;;12.93;100.00
21240;BME280;10778;48.962;9.018;2022-09-09T02:51:18;98687.09;;;12.92;100.00
21240;BME280;10778;48.962;9.018;2022-09-09T02:54:01;98685.63;;;12.89;100.00
21240;BME280;10778;48.962;9.018;2022-09-09T02:56:32;98690.72;;;12.83;100.00
21240;BME280;10778;48.962;9.018;2022-09-09T02:59:04;98693.03;;;12.77;100.00
21240;BME280;10778;48.962;9.018;2022-09-09T03:01:31;98690.88;;;12.81;100.00
21240;BME280;10778;48.962;9.018;2022-09-09T03:03:59;98686.25;;;12.75;100.00
21240;BME280;10778;48.962;9.018;2022-09-09T03:06:25;98694.66;;;12.70;100.00
21240;BME280;10778;48.962;9.018;2022-09-09T03:09:02;98702.19;;;12.57;100.00
21240;BME280;10778;48.962;9.018;2022-09-09T03:11:28;98696.63;;;12.68;100.00
21240;BME280;10778;48.962;9.018;2022-09-09T03:13:54;98694.47;;;12.63;100.00
21240;BME280;10778;48.962;9.018;2022-09-09T03:16:23;98693.47;;;12.64;100.00
21240;BME280;10778;48.962;9.018;2022-09-09T03:18:51;98687.06;;;12.67;100.00
21240;BME280;10778;48.962;9.018;2022-09-09T03:21:19;98686.22;;;12.58;100.00
21240;BME280;10778;48.962;9.018;2022-09-09T03:23:45;98688.66;;;12.51;100.00
21240;BME280;10778;48.962;9.018;2022-09-09T03:26:12;98692.44;;;12.49;100.00
21240;BME280;10778;48.962;9.018;2022-09-09T03:28:44;98693.94;;;12.43;100.00
21240;BME280;10778;48.962;9.018;2022-09-09T03:31:11;98700.88;;;12.44;100.00
21240;BME280;10778;48.962;9.018;2022-09-09T03:33:40;98701.47;;;12.38;100.00
21240;BME280;10778;48.962;9.018;2022-09-09T03:36:08;98705.28;;;12.35;100.00
21240;BME280;10778;48.962;9.018;2022-09-09T03:38:35;98697.19;;;12.37;100.00
21240;BME280;10778;48.962;9.018;2022-09-09T03:41:01;98703.47;;;12.36;100.00
21240;BME280;10778;48.962;9.018;2022-09-09T03:43:28;98703.94;;;12.31;100.00
21240;BME280;10778;48.962;9.018;2022-09-09T03:45:55;98708.75;;;12.36;100.00
21240;BME280;10778;48.962;9.018;2022-09-09T03:48:24;98707.41;;;12.32;100.00
21240;BME280;10778;48.962;9.018;2022-09-09T03:50:53;98709.03;;;12.25;100.00
21240;BME280;10778;48.962;9.018;2022-09-09T03:53:22;98704.09;;;12.30;100.00
21240;BME280;10778;48.962;9.018;2022-09-09T03:55:54;98706.44;;;12.33;100.00
21240;BME280;10778;48.962;9.018;2022-09-09T03:58:22;98706.56;;;12.31;100.00
21240;BME280;10778;48.962;9.018;2022-09-09T04:01:01;98707.94;;;12.35;100.00
21240;BME280;10778;48.962;9.018;2022-09-09T04:03:28;98702.00;;;12.33;100.00
21240;BME280;10778;48.962;9.018;2022-09-09T04:05:57;98702.78;;;12.34;100.00
21240;BME280;10778;48.962;9.018;2022-09-09T04:08:26;98706.09;;;12.36;100.00
21240;BME280;10778;48.962;9.018;2022-09-09T04:10:53;98707.41;;;12.32;100.00
21240;BME280;10778;48.962;9.018;2022-09-09T04:13:24;98715.13;;;12.25;100.00
21240;BME280;10778;48.962;9.018;2022-09-09T04:15:52;98716.13;;;12.24;100.00
21240;BME280;10778;48.962;9.018;2022-09-09T04:18:19;98714.41;;;12.15;100.00
21240;BME280;10778;48.962;9.018;2022-09-09T04:20:51;98717.75;;;12.17;100.00
21240;BME280;10778;48.962;9.018;2022-09-09T04:23:20;98728.59;;;12.14;100.00
21240;BME280;10778;48.962;9.018;2022-09-09T04:25:48;98719.75;;;12.23;100.00
21240;BME280;10778;48.962;9.018;2022-09-09T04:28:15;98728.31;;;12.25;100.00
21240;BME280;10778;48.962;9.018;2022-09-09T04:30:44;98716.63;;;12.28;100.00
21240;BME280;10778;48.962;9.018;2022-09-09T04:33:10;98722.84;;;12.18;100.00
21240;BME280;10778;48.962;9.018;2022-09-09T04:35:38;98719.75;;;12.23;100.00
21240;BME280;10778;48.962;9.018;2022-09-09T04:38:05;98729.31;;;12.32;100.00
21240;BME280;10778;48.962;9.018;2022-09-09T04:40:33;98733.72;;;12.23;100.00
21240;BME280;10778;48.962;9.018;2022-09-09T04:43:02;98727.44;;;12.16;100.00
21240;BME280;10778;48.962;9.018;2022-09-09T04:45:31;98730.94;;;12.17;100.00
21240;BME280;10778;48.962;9.018;2022-09-09T04:47:58;98729.94;;;12.18;100.00
21240;BME280;10778;48.962;9.018;2022-09-09T04:50:25;98738.31;;;12.13;100.00
21240;BME280;10778;48.962;9.018;2022-09-09T04:53:01;98736.56;;;12.22;100.00
21240;BME280;10778;48.962;9.018;2022-09-09T04:55:29;98738.06;;;12.25;100.00
21240;BME280;10778;48.962;9.018;2022-09-09T04:57:55;98742.03;;;12.37;100.00
21240;BME280;10778;48.962;9.018;2022-09-09T05:00:24;98741.72;;;12.40;100.00
21240;BME280;10778;48.962;9.018;2022-09-09T05:02:51;98748.31;;;12.36;100.00
21240;BME280;10778;48.962;9.018;2022-09-09T05:05:17;98751.94;;;12.35;100.00
21240;BME280;10778;48.962;9.018;2022-09-09T05:07:46;98750.13;;;12.35;100.00
21240;BME280;10778;48.962;9.018;2022-09-09T05:10:14;98755.56;;;12.34;100.00
21240;BME280;10778;48.962;9.018;2022-09-09T05:12:52;98759.31;;;12.31;100.00
21240;BME280;10778;48.962;9.018;2022-09-09T05:15:19;98756.88;;;12.30;100.00
21240;BME280;10778;48.962;9.018;2022-09-09T05:17:46;98760.88;;;12.42;100.00
21240;BME280;10778;48.962;9.018;2022-09-09T05:20:14;98751.34;;;12.58;100.00
21240;BME280;10778;48.962;9.018;2022-09-09T05:22:40;98752.22;;;12.66;100.00
21240;BME280;10778;48.962;9.018;2022-09-09T05:25:07;98744.84;;;12.87;100.00
21240;BME280;10778;48.962;9.018;2022-09-09T05:27:34;98755.63;;;13.10;100.00
21240;BME280;10778;48.962;9.018;2022-09-09T05:30:01;98762.25;;;13.22;100.00
21240;BME280;10778;48.962;9.018;2022-09-09T05:32:27;98767.50;;;13.14;100.00
21240;BME280;10778;48.962;9.018;2022-09-09T05:34:58;98761.75;;;13.19;100.00
21240;BME280;10778;48.962;9.018;2022-09-09T05:37:24;98767.34;;;13.16;100.00
21240;BME280;10778;48.962;9.018;2022-09-09T05:39:51;98765.88;;;13.21;100.00
21240;BME280;10778;48.962;9.018;2022-09-09T05:42:17;98762.06;;;13.24;100.00
21240;BME280;10778;48.962;9.018;2022-09-09T05:44:44;98760.09;;;13.34;100.00
21240;BME280;10778;48.962;9.018;2022-09-09T05:47:11;98758.81;;;13.47;100.00
21240;BME280;10778;48.962;9.018;2022-09-09T05:49:37;98759.47;;;13.57;100.00
21240;BME280;10778;48.962;9.018;2022-09-09T05:52:04;98761.47;;;13.63;100.00
21240;BME280;10778;48.962;9.018;2022-09-09T05:54:30;98767.38;;;13.74;100.00
21240;BME280;10778;48.962;9.018;2022-09-09T05:56:56;98760.44;;;13.89;100.00
21240;BME280;10778;48.962;9.018;2022-09-09T05:59:22;98759.44;;;13.99;100.00
21240;BME280;10778;48.962;9.018;2022-09-09T06:01:51;98758.59;;;13.98;100.00
21240;BME280;10778;48.962;9.018;2022-09-09T06:04:23;98762.09;;;13.99;100.00
21240;BME280;10778;48.962;9.018;2022-09-09T06:06:50;98763.38;;;14.03;100.00
21240;BME280;10778;48.962;9.018;2022-09-09T06:09:18;98757.25;;;14.11;100.00
21240;BME280;10778;48.962;9.018;2022-09-09T06:11:45;98751.13;;;14.10;100.00
21240;BME280;10778;48.962;9.018;2022-09-09T06:14:13;98755.75;;;14.16;100.00
21240;BME280;10778;48.962;9.018;2022-09-09T06:16:40;98758.00;;;14.28;100.00
21240;BME280;10778;48.962;9.018;2022-09-09T06:19:14;98765.38;;;14.49;100.00
21240;BME280;10778;48.962;9.018;2022-09-09T06:21:41;98757.56;;;15.65;100.00
21240;BME280;10778;48.962;9.018;2022-09-09T06:24:08;98766.25;;;15.36;100.00
21240;BME280;10778;48.962;9.018;2022-09-09T06:26:38;98766.44;;;15.34;100.00
21240;BME280;10778;48.962;9.018;2022-09-09T06:29:09;98767.25;;;15.12;100.00
21240;BME280;10778;48.962;9.018;2022-09-09T06:31:36;98762.53;;;14.99;100.00
21240;BME280;10778;48.962;9.018;2022-09-09T06:34:09;98769.41;;;14.85;100.00
21240;BME280;10778;48.962;9.018;2022-09-09T06:36:39;98770.44;;;14.75;100.00
21240;BME280;10778;48.962;9.018;2022-09-09T06:39:06;98768.13;;;14.72;100.00
21240;BME280;10778;48.962;9.018;2022-09-09T06:41:33;98771.63;;;14.73;100.00
21240;BME280;10778;48.962;9.018;2022-09-09T06:44:02;98774.31;;;15.19;100.00
21240;BME280;10778;48.962;9.018;2022-09-09T06:46:34;98783.13;;;15.43;100.00
21240;BME280;10778;48.962;9.018;2022-09-09T06:49:02;98784.75;;;15.44;100.00
21240;BME280;10778;48.962;9.018;2022-09-09T06:51:30;98783.00;;;16.13;100.00
21240;BME280;10778;48.962;9.018;2022-09-09T06:54:01;98778.59;;;15.67;100.00
21240;BME280;10778;48.962;9.018;2022-09-09T06:56:34;98786.09;;;15.63;100.00
21240;BME280;10778;48.962;9.018;2022-09-09T06:59:05;98777.78;;;15.67;100.00
21240;BME280;10778;48.962;9.018;2022-09-09T07:01:34;98779.97;;;15.63;100.00
21240;BME280;10778;48.962;9.018;2022-09-09T07:04:05;98771.25;;;15.54;100.00
21240;BME280;10778;48.962;9.018;2022-09-09T07:06:38;98773.94;;;15.69;100.00
21240;BME280;10778;48.962;9.018;2022-09-09T07:09:11;98782.28;;;15.81;100.00
21240;BME280;10778;48.962;9.018;2022-09-09T07:11:42;98787.47;;;15.98;100.00
21240;BME280;10778;48.962;9.018;2022-09-09T07:14:10;98786.22;;;16.39;100.00
21240;BME280;10778;48.962;9.018;2022-09-09T07:16:43;98788.34;;;16.95;98.68
21240;BME280;10778;48.962;9.018;2022-09-09T07:19:11;98785.00;;;17.45;96.41
21240;BME280;10778;48.962;9.018;2022-09-09T07:21:39;98784.91;;;17.88;91.86
21240;BME280;10778;48.962;9.018;2022-09-09T07:24:10;98783.81;;;19.78;81.45
21240;BME280;10778;48.962;9.018;2022-09-09T07:26:39;98777.31;;;21.05;77.22
21240;BME280;10778;48.962;9.018;2022-09-09T07:29:07;98775.69;;;21.62;70.90
21240;BME280;10778;48.962;9.018;2022-09-09T07:31:35;98772.09;;;20.85;74.31
21240;BME280;10778;48.962;9.018;2022-09-09T07:34:04;98769.91;;;20.61;74.83
21240;BME280;10778;48.962;9.018;2022-09-09T07:36:33;98770.41;;;20.31;75.98
21240;BME280;10778;48.962;9.018;2022-09-09T07:39:03;98766.16;;;19.90;72.38
21240;BME280;10778;48.962;9.018;2022-09-09T07:41:44;98761.25;;;21.05;72.46
21240;BME280;10778;48.962;9.018;2022-09-09T07:44:17;98769.69;;;20.63;72.72
21240;BME280;10778;48.962;9.018;2022-09-09T07:46:46;98782.16;;;20.10;75.65
21240;BME280;10778;48.962;9.018;2022-09-09T07:49:17;98787.09;;;19.73;74.83
21240;BME280;10778;48.962;9.018;2022-09-09T07:51:46;98791.34;;;19.20;75.29
21240;BME280;10778;48.962;9.018;2022-09-09T07:54:15;98779.41;;;19.02;77.97
21240;BME280;10778;48.962;9.018;2022-09-09T07:56:44;98777.91;;;18.86;76.38
21240;BME280;10778;48.962;9.018;2022-09-09T07:59:11;98778.66;;;18.67;77.17
21240;BME280;10778;48.962;9.018;2022-09-09T08:01:45;98781.50;;;18.65;78.49
21240;BME280;10778;48.962;9.018;2022-09-09T08:04:17;98781.16;;;18.82;77.33
21240;BME280;10778;48.962;9.018;2022-09-09T08:06:47;98775.56;;;19.25;77.01
21240;BME280;10778;48.962;9.018;2022-09-09T08:09:16;98774.88;;;21.03;72.09
21240;BME280;10778;48.962;9.018;2022-09-09T08:11:42;98760.09;;;23.26;67.61
21240;BME280;10778;48.962;9.018;2022-09-09T08:14:09;98757.56;;;23.13;60.75
21240;BME280;10778;48.962;9.018;2022-09-09T08:16:40;98753.88;;;22.83;62.32
21240;BME280;10778;48.962;9.018;2022-09-09T08:19:07;98759.84;;;22.29;61.91
21240;BME280;10778;48.962;9.018;2022-09-09T08:21:36;98772.91;;;23.91;59.52
21240;BME280;10778;48.962;9.018;2022-09-09T08:24:03;98774.59;;;23.49;59.06
21240;BME280;10778;48.962;9.018;2022-09-09T08:26:39;98784.81;;;23.71;59.55
21240;BME280;10778;48.962;9.018;2022-09-09T08:29:09;98774.44;;;24.22;58.36
21240;BME280;10778;48.962;9.018;2022-09-09T08:31:44;98777.59;;;22.98;58.97
21240;BME280;10778;48.962;9.018;2022-09-09T08:34:11;98779.69;;;24.05;57.82
21240;BME280;10778;48.962;9.018;2022-09-09T08:36:39;98770.13;;;24.09;57.24
21240;BME280;10778;48.962;9.018;2022-09-09T08:39:10;98760.09;;;24.57;56.43
21240;BME280;10778;48.962;9.018;2022-09-09T08:50:25;98762.31;;;22.99;58.09
21240;BME280;10778;48.962;9.018;2022-09-09T08:53:11;98758.41;;;23.68;57.50
21240;BME280;10778;48.962;9.018;2022-09-09T08:55:54;98762.13;;;23.79;56.77
21240;BME280;10778;48.962;9.018;2022-09-09T08:58:33;98755.72;;;24.27;56.85
21240;BME280;10778;48.962;9.018;2022-09-09T09:01:14;98763.31;;;23.95;56.95
21240;BME280;10778;48.962;9.018;2022-09-09T09:06:57;98765.28;;;23.87;56.92
21240;BME280;10778;48.962;9.018;2022-09-09T09:09:57;98764.38;;;23.82;55.96
21240;BME280;10778;48.962;9.018;2022-09-09T09:12:41;98759.91;;;23.52;57.01
21240;BME280;10778;48.962;9.018;2022-09-09T09:15:21;98750.69;;;23.83;56.91
21240;BME280;10778;48.962;9.018;2022-09-09T09:17:50;98751.44;;;22.94;58.27
21240;BME280;10778;48.962;9.018;2022-09-09T09:20:21;98747.13;;;23.23;57.03
21240;BME280;10778;48.962;9.018;2022-09-09T09:22:51;98743.72;;;22.85;58.87
21240;BME280;10778;48.962;9.018;2022-09-09T09:25:21;98740.88;;;22.99;56.66
21240;BME280;10778;48.962;9.018;2022-09-09T09:27:57;98740.28;;;22.48;57.93
21240;BME280;10778;48.962;9.018;2022-09-09T09:30:58;98739.78;;;22.88;55.90
21240;BME280;10778;48.962;9.018;2022-09-09T09:33:33;98727.59;;;23.16;54.43
21240;BME280;10778;48.962;9.018;2022-09-09T09:36:01;98731.91;;;23.60;54.35
21240;BME280;10778;48.962;9.018;2022-09-09T09:38:28;98728.22;;;22.87;55.68
21240;BME280;10778;48.962;9.018;2022-09-09T09:40:59;98724.13;;;22.85;57.04
21240;BME280;10778;48.962;9.018;2022-09-09T09:43:37;98739.56;;;21.52;63.64
21240;BME280;10778;48.962;9.018;2022-09-09T09:46:23;98741.13;;;21.35;64.09
21240;BME280;10778;48.962;9.018;2022-09-09T09:49:04;98750.00;;;20.96;65.34
21240;BME280;10778;48.962;9.018;2022-09-09T09:51:32;98746.50;;;20.43;67.47
21240;BME280;10778;48.962;9.018;2022-09-09T09:56:39;98770.84;;;19.21;80.64
21240;BME280;10778;48.962;9.018;2022-09-09T09:59:23;98766.13;;;19.23;88.14
21240;BME280;10778;48.962;9.018;2022-09-09T10:02:22;98774.88;;;18.96;89.21
21240;BME280;10778;48.962;9.018;2022-09-09T10:05:04;98775.34;;;18.23;87.91
21240;BME280;10778;48.962;9.018;2022-09-09T10:07:33;98778.00;;;17.66;88.15
21240;BME280;10778;48.962;9.018;2022-09-09T10:09:59;98806.03;;;17.40;91.65
21240;BME280;10778;48.962;9.018;2022-09-09T10:12:49;98797.06;;;16.74;94.09
21240;BME280;10778;48.962;9.018;2022-09-09T10:18:08;98770.81;;;17.38;88.28
21240;BME280;10778;48.962;9.018;2022-09-09T10:36:48;98737.72;;;20.29;76.30
21240;BME280;10778;48.962;9.018;2022-09-09T10:42:07;98746.06;;;20.53;77.67
21240;BME280;10778;48.962;9.018;2022-09-09T10:47:42;98748.66;;;20.21;78.03
21240;BME280;10778;48.962;9.018;2022-09-09T10:50:33;98759.38;;;19.87;78.99
21240;BME280;10778;48.962;9.018;2022-09-09T10:53:09;98754.00;;;19.20;73.84
21240;BME280;10778;48.962;9.018;2022-09-09T10:55:42;98763.44;;;19.16;75.68
21240;BME280;10778;48.962;9.018;2022-09-09T10:58:19;98763.25;;;19.11;71.69
21240;BME280;10778;48.962;9.018;2022-09-09T11:00:49;98766.91;;;19.03;73.90
21240;BME280;10778;48.962;9.018;2022-09-09T11:03:25;98771.97;;;18.84;73.54
21240;BME280;10778;48.962;9.018;2022-09-09T11:06:05;98775.66;;;18.97;74.75
21240;BME280;10778;48.962;9.018;2022-09-09T11:08:35;98776.66;;;18.82;73.52
21240;BME280;10778;48.962;9.018;2022-09-09T11:11:09;98790.69;;;18.56;73.71
21240;BME280;10778;48.962;9.018;2022-09-09T11:18:49;98792.53;;;17.91;74.42
21240;BME280;10778;48.962;9.018;2022-09-09T11:21:52;98798.19;;;17.82;76.95
21240;BME280;10778;48.962;9.018;2022-09-09T11:24:26;98798.41;;;17.58;80.36
21240;BME280;10778;48.962;9.018;2022-09-09T11:26:58;98796.41;;;17.39;83.65
21240;BME280;10778;48.962;9.018;2022-09-09T11:32:54;98808.13;;;16.92;86.79
21240;BME280;10778;48.962;9.018;2022-09-09T11:41:08;98806.16;;;16.64;89.38
21240;BME280;10778;48.962;9.018;2022-09-09T11:43:44;98797.44;;;16.71;88.84
21240;BME280;10778;48.962;9.018;2022-09-09T11:51:54;98797.75;;;16.61;91.44
21240;BME280;10778;48.962;9.018;2022-09-09T11:54:31;98789.84;;;16.68;91.56
21240;BME280;10778;48.962;9.018;2022-09-09T11:56:58;98788.69;;;16.70;87.62
21240;BME280;10778;48.962;9.018;2022-09-09T11:59:30;98774.69;;;17.13;88.85
21240;BME280;10778;48.962;9.018;2022-09-09T12:05:06;98756.59;;;17.52;84.85
21240;BME280;10778;48.962;9.018;2022-09-09T12:07:35;98739.72;;;17.95;84.69
21240;BME280;10778;48.962;9.018;2022-09-09T12:10:32;98755.31;;;18.27;83.38
21240;BME280;10778;48.962;9.018;2022-09-09T12:13:18;98732.22;;;18.41;80.60
21240;BME280;10778;48.962;9.018;2022-09-09T12:15:50;98737.03;;;18.59;81.12
21240;BME280;10778;48.962;9.018;2022-09-09T12:21:19;98734.31;;;19.14;77.35
21240;BME280;10778;48.962;9.018;2022-09-09T12:23:50;98739.03;;;19.59;77.10
21240;BME280;10778;48.962;9.018;2022-09-09T12:26:34;98734.75;;;19.92;77.43
21240;BME280;10778;48.962;9.018;2022-09-09T12:32:06;98733.88;;;20.12;69.45
21240;BME280;10778;48.962;9.018;2022-09-09T12:34:44;98727.34;;;20.01;69.87
21240;BME280;10778;48.962;9.018;2022-09-09T12:37:21;98726.47;;;20.14;69.74
21240;BME280;10778;48.962;9.018;2022-09-09T12:40:01;98726.66;;;20.26;71.27
21240;BME280;10778;48.962;9.018;2022-09-09T12:42:30;98730.78;;;20.22;71.65
21240;BME280;10778;48.962;9.018;2022-09-09T12:45:00;98736.84;;;20.49;67.97
21240;BME280;10778;48.962;9.018;2022-09-09T12:47:42;98731.97;;;20.78;67.34
21240;BME280;10778;48.962;9.018;2022-09-09T12:50:21;98733.63;;;21.18;67.73
21240;BME280;10778;48.962;9.018;2022-09-09T12:52:50;98716.84;;;21.29;64.35
21240;BME280;10778;48.962;9.018;2022-09-09T12:55:20;98726.66;;;21.17;66.21
21240;BME280;10778;48.962;9.018;2022-09-09T12:57:48;98716.75;;;21.17;64.82
21240;BME280;10778;48.962;9.018;2022-09-09T13:00:23;98712.13;;;21.31;66.04
21240;BME280;10778;48.962;9.018;2022-09-09T13:02:55;98710.59;;;21.17;62.92
21240;BME280;10778;48.962;9.018;2022-09-09T13:05:27;98701.78;;;21.10;64.01
21240;BME280;10778;48.962;9.018;2022-09-09T13:08:08;98704.13;;;20.99;62.82
21240;BME280;10778;48.962;9.018;2022-09-09T13:10:39;98703.09;;;21.00;63.29
21240;BME280;10778;48.962;9.018;2022-09-09T13:13:17;98701.63;;;21.30;62.47
21240;BME280;10778;48.962;9.018;2022-09-09T13:15:51;98704.16;;;21.50;61.96
21240;BME280;10778;48.962;9.018;2022-09-09T13:18:21;98709.06;;;21.53;59.49
21240;BME280;10778;48.962;9.018;2022-09-09T13:20:49;98699.34;;;21.84;58.02
21240;BME280;10778;48.962;9.018;2022-09-09T13:23:16;98696.75;;;22.15;57.41
21240;BME280;10778;48.962;9.018;2022-09-09T13:25:56;98692.69;;;22.24;57.49
21240;BME280;10778;48.962;9.018;2022-09-09T13:28:26;98687.44;;;22.17;56.33
21240;BME280;10778;48.962;9.018;2022-09-09T13:31:03;98678.78;;;22.34;57.87
21240;BME280;10778;48.962;9.018;2022-09-09T13:36:07;98678.50;;;22.24;56.71
21240;BME280;10778;48.962;9.018;2022-09-09T13:38:52;98684.13;;;22.15;56.23
21240;BME280;10778;48.962;9.018;2022-09-09T13:41:23;98677.97;;;22.15;56.90
21240;BME280;10778;48.962;9.018;2022-09-09T13:43:51;98675.41;;;22.57;55.30
21240;BME280;10778;48.962;9.018;2022-09-09T13:46:34;98669.06;;;22.70;55.48
21240;BME280;10778;48.962;9.018;2022-09-09T13:49:17;98666.38;;;22.70;55.82
21240;BME280;10778;48.962;9.018;2022-09-09T13:51:47;98661.81;;;23.13;54.63
21240;BME280;10778;48.962;9.018;2022-09-09T13:54:15;98664.13;;;22.98;55.05
21240;BME280;10778;48.962;9.018;2022-09-09T13:56:42;98656.28;;;22.54;54.80
21240;BME280;10778;48.962;9.018;2022-09-09T13:59:15;98659.66;;;22.92;54.91
21240;BME280;10778;48.962;9.018;2022-09-09T14:01:41;98660.34;;;22.87;56.17
21240;BME280;10778;48.962;9.018;2022-09-09T14:04:08;98667.28;;;22.64;55.72
21240;BME280;10778;48.962;9.018;2022-09-09T14:06:35;98676.09;;;21.97;55.66
21240;BME280;10778;48.962;9.018;2022-09-09T14:09:06;98673.75;;;21.88;57.75
21240;BME280;10778;48.962;9.018;2022-09-09T14:11:32;98662.38;;;21.93;57.02
21240;BME280;10778;48.962;9.018;2022-09-09T14:13:58;98669.94;;;21.78;58.97
21240;BME280;10778;48.962;9.018;2022-09-09T14:16:24;98666.59;;;21.82;59.14
21240;BME280;10778;48.962;9.018;2022-09-09T14:18:53;98671.66;;;21.46;57.93
21240;BME280;10778;48.962;9.018;2022-09-09T14:21:22;98672.34;;;21.60;58.77
21240;BME280;10778;48.962;9.018;2022-09-09T14:23:48;98674.38;;;21.40;58.06
21240;BME280;10778;48.962;9.018;2022-09-09T14:26:14;98668.84;;;20.84;59.10
21240;BME280;10778;48.962;9.018;2022-09-09T14:28:40;98670.31;;;20.73;59.83
21240;BME280;10778;48.962;9.018;2022-09-09T14:31:06;98668.84;;;20.84;60.16
21240;BME280;10778;48.962;9.018;2022-09-09T14:33:33;98666.84;;;20.66;58.66
21240;BME280;10778;48.962;9.018;2022-09-09T14:36:01;98671.78;;;20.69;60.04
21240;BME280;10778;48.962;9.018;2022-09-09T14:38:31;98670.91;;;20.82;61.51
21240;BME280;10778;48.962;9.018;2022-09-09T14:41:00;98670.66;;;20.90;60.14
21240;BME280;10778;48.962;9.018;2022-09-09T14:43:29;98687.28;;;20.92;61.06
21240;BME280;10778;48.962;9.018;2022-09-09T14:46:07;98694.19;;;20.68;63.11
21240;BME280;10778;48.962;9.018;2022-09-09T14:48:34;98693.34;;;20.74;61.85
21240;BME280;10778;48.962;9.018;2022-09-09T14:51:21;98700.63;;;20.53;62.33
21240;BME280;10778;48.962;9.018;2022-09-09T14:53:51;98703.72;;;20.50;62.53
21240;BME280;10778;48.962;9.018;2022-09-09T14:56:20;98700.94;;;20.31;58.41
21240;BME280;10778;48.962;9.018;2022-09-09T14:58:49;98704.03;;;20.35;57.79
21240;BME280;10778;48.962;9.018;2022-09-09T15:01:19;98706.31;;;20.25;57.08
21240;BME280;10778;48.962;9.018;2022-09-09T15:03:52;98708.72;;;20.40;56.80
21240;BME280;10778;48.962;9.018;2022-09-09T15:06:19;98703.78;;;20.37;56.49
21240;BME280;10778;48.962;9.018;2022-09-09T15:08:46;98700.47;;;20.41;56.55